Time;durP1;ratioP1;P1;durP2;ratioP2;P2;SDS_P1;SDS_P2;PMS_P1;PMS_P2;Temp;Humidity;BMP_temperature;BMP_pressure;BME280_temperature;BME280_humidity;BME280_pressure;Samples;Min_cycle;Max_cycle;Signal;HPM_P1;HPM_P2
2022/11/28 00:01:32;;;;;;;34.70;31.60;;;;;;;1.73;94.33;98638.46;105282;1314;22862;-86
2022/11/28 00:04:00;;;;;;;37.30;33.90;;;;;;;1.75;94.06;98638.84;104843;1330;22211;-87
2022/11/28 00:06:28;;;;;;;36.50;33.30;;;;;;;1.76;94.22;98640.63;104995;1314;22845;-86
2022/11/28 00:08:59;;;;;;;37.80;34.40;;;;;;;1.75;94.30;98641.50;104765;1329;22228;-86
2022/11/28 00:11:27;;;;;;;35.20;31.90;;;;;;;1.74;94.23;98642.78;104633;1329;22288;-87
2022/11/28 00:13:55;;;;;;;34.20;30.90;;;;;;;1.75;94.25;98643.89;104881;1329;22138;-86
2022/11/28 00:16:23;;;;;;;33.60;30.40;;;;;;;1.76;94.07;98645.04;104833;1329;22212;-86
2022/11/28 00:18:53;;;;;;;34.50;31.30;;;;;;;1.77;94.23;98650.73;104863;1329;22896;-86
2022/11/28 00:21:23;;;;;;;35.60;32.30;;;;;;;1.78;94.05;98648.29;105091;1320;22209;-87
2022/11/28 00:23:51;;;;;;;36.60;33.30;;;;;;;1.78;94.34;98643.39;104537;1328;22951;-87
2022/11/28 00:26:23;;;;;;;37.60;34.10;;;;;;;1.78;94.10;98643.77;104646;1330;23112;-86
2022/11/28 00:28:51;;;;;;;33.90;30.60;;;;;;;1.77;93.93;98637.36;104832;1329;22277;-86
2022/11/28 00:31:22;;;;;;;34.50;31.20;;;;;;;1.76;93.99;98632.16;104739;1329;22209;-87
2022/11/28 00:33:50;;;;;;;31.30;28.40;;;;;;;1.76;93.91;98637.80;104841;1320;23094;-87
2022/11/28 00:36:19;;;;;;;32.90;29.90;;;;;;;1.77;94.09;98635.55;104968;1319;22866;-87
2022/11/28 00:38:48;;;;;;;34.40;31.10;;;;;;;1.74;94.10;98632.23;104762;1329;22251;-87
2022/11/28 00:41:20;;;;;;;35.80;32.50;;;;;;;1.71;93.86;98637.73;104853;1330;22225;-86
2022/11/28 00:43:49;;;;;;;35.00;31.80;;;;;;;1.66;93.90;98636.43;104635;1329;23401;-88
2022/11/28 00:46:20;;;;;;;32.90;29.70;;;;;;;1.63;93.88;98634.50;104641;1328;22286;-86
2022/11/28 00:48:49;;;;;;;32.80;29.80;;;;;;;1.62;93.79;98629.94;104645;1330;22201;-86
2022/11/28 00:51:18;;;;;;;31.90;28.70;;;;;;;1.63;93.78;98629.48;104668;1324;22280;-86
2022/11/28 00:53:48;;;;;;;33.80;30.70;;;;;;;1.63;93.75;98624.36;104775;1329;22227;-86
2022/11/28 00:56:19;;;;;;;33.70;30.50;;;;;;;1.61;93.97;98621.98;104766;1329;22210;-86
2022/11/28 00:58:50;;;;;;;31.70;28.60;;;;;;;1.59;94.00;98615.59;104659;1330;22104;-86
2022/11/28 01:01:18;;;;;;;32.10;29.10;;;;;;;1.59;93.97;98614.48;104745;1329;22469;-85
2022/11/28 01:03:48;;;;;;;32.90;29.70;;;;;;;1.61;93.63;98611.76;104862;1330;22768;-86
2022/11/28 01:06:22;;;;;;;33.00;29.80;;;;;;;1.62;93.59;98606.03;105270;1319;22262;-87
2022/11/28 01:08:50;;;;;;;33.80;30.30;;;;;;;1.63;93.93;98602.05;104867;1329;22224;-87
2022/11/28 01:11:19;;;;;;;34.20;31.00;;;;;;;1.60;93.76;98595.67;104637;1328;22420;-86
2022/11/28 01:13:48;;;;;;;32.30;29.30;;;;;;;1.58;93.57;98593.58;104900;1307;22930;-87
2022/11/28 01:16:16;;;;;;;31.60;28.50;;;;;;;1.57;93.60;98594.39;104976;1320;22197;-86
2022/11/28 01:18:44;;;;;;;31.40;28.30;;;;;;;1.59;93.93;98593.60;105279;1312;22862;-87
2022/11/28 01:21:12;;;;;;;29.70;27.00;;;;;;;1.60;93.85;98589.13;104864;1315;22132;-87
2022/11/28 01:23:40;;;;;;;31.00;27.90;;;;;;;1.60;93.53;98583.28;105297;1314;22182;-86
2022/11/28 01:26:14;;;;;;;31.40;28.30;;;;;;;1.59;93.69;98578.80;104859;1330;22261;-87
2022/11/28 01:28:42;;;;;;;29.70;26.70;;;;;;;1.58;93.70;98574.61;104646;1330;22211;-86
2022/11/28 01:31:13;;;;;;;28.50;25.80;;;;;;;1.58;93.57;98570.64;104748;1323;22239;-87
2022/11/28 01:33:41;;;;;;;27.30;24.90;;;;;;;1.62;93.26;98567.33;104856;1329;22243;-87
2022/11/28 01:36:11;;;;;;;27.90;25.40;;;;;;;1.64;93.21;98561.16;104853;1330;22361;-87
2022/11/28 01:38:40;;;;;;;30.90;27.90;;;;;;;1.64;93.18;98557.04;104848;1329;22264;-86
2022/11/28 01:41:09;;;;;;;30.20;27.50;;;;;;;1.61;92.80;98552.02;104558;1330;22304;-86
2022/11/28 01:43:55;;;;;;;30.50;27.60;;;;;;;1.61;92.99;98556.68;104713;1324;22182;-86
2022/11/28 01:46:23;;;;;;;29.30;26.60;;;;;;;1.59;92.60;98551.92;104719;1329;22252;-86
2022/11/28 01:48:53;;;;;;;29.00;26.00;;;;;;;1.60;92.96;98549.29;104730;1329;22349;-86
2022/11/28 01:51:21;;;;;;;29.20;26.50;;;;;;;1.63;92.98;98546.52;105297;1308;22195;-87
2022/11/28 01:53:49;;;;;;;30.70;27.70;;;;;;;1.63;92.88;98545.33;104745;1329;22139;-86
2022/11/28 01:56:22;;;;;;;34.70;31.40;;;;;;;1.63;92.81;98543.04;104859;1330;23053;-86
2022/11/28 01:58:58;;;;;;;35.70;32.30;;;;;;;1.58;92.96;98530.36;104931;1329;22332;-86
2022/11/28 02:01:26;;;;;;;34.90;31.60;;;;;;;1.58;92.71;98533.34;104846;1329;22247;-87
2022/11/28 02:03:56;;;;;;;33.90;30.60;;;;;;;1.58;92.75;98535.67;104635;1330;22273;-86
2022/11/28 02:06:26;;;;;;;33.70;30.50;;;;;;;1.57;92.62;98532.52;104640;1330;22088;-88
2022/11/28 02:08:54;;;;;;;33.50;30.20;;;;;;;1.58;92.83;98530.20;104548;1324;22214;-87
2022/11/28 02:11:55;;;;;;;34.00;30.80;;;;;;;1.56;92.93;98523.10;104553;1328;22655;-88
2022/11/28 02:15:04;;;;;;;37.40;34.00;;;;;;;1.55;93.12;98520.19;104795;1329;22140;-87
2022/11/28 02:17:57;;;;;;;39.40;35.80;;;;;;;1.50;92.96;98522.65;104275;1335;22229;-88
2022/11/28 02:20:43;;;;;;;37.50;34.00;;;;;;;1.45;93.09;98517.48;104462;1323;22159;-88
2022/11/28 02:23:19;;;;;;;38.10;34.60;;;;;;;1.46;93.03;98516.05;104217;1335;22831;-88
2022/11/28 02:26:06;;;;;;;36.20;32.70;;;;;;;1.45;93.21;98516.59;104497;1328;22212;-88
2022/11/28 02:28:44;;;;;;;38.90;35.10;;;;;;;1.46;93.26;98513.79;104253;1328;22268;-89
2022/11/28 02:31:43;;;;;;;38.30;34.80;;;;;;;1.49;93.36;98514.70;104467;1327;23163;-88
2022/11/28 02:34:22;;;;;;;39.00;35.60;;;;;;;1.47;93.23;98515.05;104260;1335;22262;-87
2022/11/28 02:36:59;;;;;;;38.90;35.20;;;;;;;1.45;93.21;98508.45;104199;1335;22331;-88
2022/11/28 02:39:30;;;;;;;36.50;33.00;;;;;;;1.45;93.42;98508.72;104388;1323;22113;-88
2022/11/28 02:42:24;;;;;;;36.10;32.70;;;;;;;1.45;93.45;98509.52;104459;1328;22450;-85
2022/11/28 02:45:19;;;;;;;35.00;31.70;;;;;;;1.48;93.54;98507.15;104239;1335;22305;-87
2022/11/28 02:48:01;;;;;;;37.90;34.50;;;;;;;1.50;93.63;98507.91;104352;1330;22255;-88
2022/11/28 02:50:34;;;;;;;39.80;36.10;;;;;;;1.52;93.61;98508.52;104723;1329;22255;-87
2022/11/28 02:53:06;;;;;;;37.90;34.50;;;;;;;1.50;93.67;98505.70;104748;1329;22184;-87
2022/11/28 02:55:40;;;;;;;39.20;35.60;;;;;;;1.45;93.63;98500.36;104644;1329;22856;-87
2022/11/28 02:58:10;;;;;;;38.50;35.00;;;;;;;1.44;93.71;98502.30;104519;1329;22227;-87
2022/11/28 03:00:42;;;;;;;36.10;32.70;;;;;;;1.44;93.65;98494.50;104627;1329;22194;-87
2022/11/28 03:03:29;;;;;;;35.50;32.20;;;;;;;1.46;93.74;98489.61;104511;1330;22192;-87
2022/11/28 03:06:00;;;;;;;36.20;32.80;;;;;;;1.46;93.67;98488.52;104695;1329;22184;-87
2022/11/28 03:08:46;;;;;;;38.60;35.00;;;;;;;1.44;93.88;98489.77;104760;1330;22262;-86
2022/11/28 03:11:20;;;;;;;40.40;36.80;;;;;;;1.40;93.95;98487.86;104753;1329;22904;-86
2022/11/28 03:13:48;;;;;;;38.60;35.10;;;;;;;1.38;93.89;98486.38;104736;1330;22276;-87
2022/11/28 03:16:28;;;;;;;32.60;29.10;;;;;;;1.38;93.93;98481.40;104869;1329;23366;-87
2022/11/28 03:19:23;;;;;;;36.80;33.20;;;;;;;1.39;94.22;98481.83;104623;1330;22118;-87
2022/11/28 03:22:01;;;;;;;39.50;35.60;;;;;;;1.38;94.06;98476.65;104680;1329;22878;-87
2022/11/28 03:24:41;;;;;;;37.30;33.90;;;;;;;1.38;94.28;98476.33;104746;1329;22221;-87
2022/11/28 03:27:36;;;;;;;39.40;35.70;;;;;;;1.35;94.05;98474.02;104840;1330;23004;-87
2022/11/28 03:30:18;;;;;;;37.80;34.20;;;;;;;1.32;94.17;98470.77;104730;1330;22286;-87
2022/11/28 03:32:52;;;;;;;35.90;32.40;;;;;;;1.32;94.34;98469.04;105303;1319;22214;-87
2022/11/28 03:35:25;;;;;;;36.40;32.90;;;;;;;1.35;94.30;98476.23;105282;1319;22264;-87
2022/11/28 03:37:59;;;;;;;37.30;33.80;;;;;;;1.37;94.44;98473.23;104712;1329;22194;-87
2022/11/28 03:40:34;;;;;;;38.70;35.00;;;;;;;1.38;94.39;98466.02;105278;1319;22180;-87
2022/11/28 03:43:07;;;;;;;42.20;38.10;;;;;;;1.35;94.42;98468.20;104756;1329;22137;-88
2022/11/28 03:45:39;;;;;;;39.10;35.50;;;;;;;1.32;94.33;98463.70;104642;1330;22276;-86
2022/11/28 03:48:29;;;;;;;38.60;34.90;;;;;;;1.32;94.51;98466.35;104724;1324;22112;-88
2022/11/28 03:51:04;;;;;;;36.00;32.60;;;;;;;1.35;94.51;98468.67;104835;1330;22201;-87
2022/11/28 03:53:47;;;;;;;37.00;33.50;;;;;;;1.36;94.58;98462.54;104548;1328;22078;-87
2022/11/28 03:56:23;;;;;;;39.10;35.50;;;;;;;1.39;94.58;98465.73;104733;1328;22244;-87
2022/11/28 03:58:56;;;;;;;40.00;36.30;;;;;;;1.39;94.43;98463.61;105271;1319;22281;-87
2022/11/28 04:01:35;;;;;;;40.50;36.70;;;;;;;1.38;94.54;98465.29;105274;1319;22353;-86
2022/11/28 04:04:26;;;;;;;38.80;35.10;;;;;;;1.38;94.54;98463.16;104831;1328;22193;-87
2022/11/28 04:07:04;;;;;;;38.00;34.50;;;;;;;1.38;94.60;98462.96;104758;1329;22217;-87
2022/11/28 04:09:46;;;;;;;37.10;33.80;;;;;;;1.41;94.88;98459.24;104566;1323;22180;-87
2022/11/28 04:12:32;;;;;;;39.10;35.60;;;;;;;1.38;94.84;98456.38;104753;1329;22266;-87
2022/11/28 04:15:07;;;;;;;37.60;34.30;;;;;;;1.34;94.84;98456.60;104915;1320;22660;-88
2022/11/28 04:17:48;;;;;;;39.70;36.00;;;;;;;1.33;94.82;98451.84;104563;1329;22212;-87
2022/11/28 04:20:28;;;;;;;35.60;32.00;;;;;;;1.34;94.89;98455.26;104814;1329;22229;-87
2022/11/28 04:23:06;;;;;;;35.80;32.50;;;;;;;1.38;94.70;98454.14;104842;1329;22190;-88
2022/11/28 04:25:37;;;;;;;36.70;33.30;;;;;;;1.43;94.79;98455.38;104866;1329;22195;-87
2022/11/28 04:28:13;;;;;;;39.70;35.80;;;;;;;1.46;94.78;98456.94;104641;1330;22914;-87
2022/11/28 04:30:44;;;;;;;39.50;35.90;;;;;;;1.44;94.76;98452.44;104797;1329;22087;-87
2022/11/28 04:33:15;;;;;;;38.40;34.90;;;;;;;1.41;94.81;98450.66;104795;1329;22150;-88
2022/11/28 04:35:50;;;;;;;38.20;34.60;;;;;;;1.41;94.78;98452.13;104655;1328;22207;-87
2022/11/28 04:38:22;;;;;;;37.10;33.60;;;;;;;1.43;94.64;98447.41;104650;1330;22994;-88
2022/11/28 04:40:55;;;;;;;37.50;34.00;;;;;;;1.44;94.99;98449.36;104622;1330;22246;-87
2022/11/28 04:43:29;;;;;;;41.50;37.60;;;;;;;1.43;94.85;98447.16;104919;1317;22222;-88
2022/11/28 04:46:08;;;;;;;42.00;38.00;;;;;;;1.42;94.93;98443.98;104703;1324;22196;-85
2022/11/28 04:48:36;;;;;;;40.70;36.90;;;;;;;1.39;94.81;98439.09;104661;1330;22214;-86
2022/11/28 04:51:26;;;;;;;37.40;33.90;;;;;;;1.39;94.85;98437.91;104741;1329;22992;-86
2022/11/28 04:54:05;;;;;;;39.00;35.40;;;;;;;1.39;95.13;98435.90;104852;1329;22202;-87
2022/11/28 04:56:41;;;;;;;40.10;36.20;;;;;;;1.40;95.20;98439.57;104631;1330;23065;-88
2022/11/28 04:59:11;;;;;;;40.10;36.40;;;;;;;1.40;95.02;98440.42;104625;1330;22197;-87
2022/11/28 05:01:42;;;;;;;41.30;37.40;;;;;;;1.37;95.03;98446.02;104712;1329;22198;-88
2022/11/28 05:04:12;;;;;;;41.00;37.20;;;;;;;1.36;94.97;98441.83;104729;1325;22179;-85
2022/11/28 05:06:40;;;;;;;39.20;35.50;;;;;;;1.35;95.17;98444.09;104613;1328;23066;-86
2022/11/28 05:09:10;;;;;;;37.40;33.90;;;;;;;1.37;95.08;98448.39;104747;1329;22960;-85
2022/11/28 05:11:38;;;;;;;37.20;33.60;;;;;;;1.41;95.36;98447.56;104842;1330;22235;-86
2022/11/28 05:14:07;;;;;;;38.70;35.10;;;;;;;1.43;95.02;98451.13;104870;1330;22240;-86
2022/11/28 05:16:34;;;;;;;39.80;36.10;;;;;;;1.44;95.32;98448.91;104859;1330;22254;-87
2022/11/28 05:19:03;;;;;;;41.10;37.10;;;;;;;1.44;95.16;98447.08;104757;1323;22222;-86
2022/11/28 05:21:30;;;;;;;40.80;37.00;;;;;;;1.44;95.23;98442.70;104884;1329;22733;-88
2022/11/28 05:23:58;;;;;;;39.30;35.30;;;;;;;1.45;95.20;98443.96;104850;1330;22293;-87
2022/11/28 05:26:30;;;;;;;38.40;34.80;;;;;;;1.46;95.06;98443.20;104869;1329;23088;-86
2022/11/28 05:28:58;;;;;;;39.00;35.30;;;;;;;1.49;95.11;98441.56;104726;1329;22785;-88
2022/11/28 05:31:27;;;;;;;40.80;36.60;;;;;;;1.49;95.09;98445.73;104768;1329;22253;-87
2022/11/28 05:33:55;;;;;;;42.10;37.80;;;;;;;1.49;95.08;98449.37;104762;1330;22211;-87
2022/11/28 05:36:23;;;;;;;40.70;36.80;;;;;;;1.46;95.22;98450.06;104834;1329;22173;-87
2022/11/28 05:38:51;;;;;;;40.20;36.30;;;;;;;1.47;95.18;98446.45;105272;1319;22241;-86
2022/11/28 05:41:22;;;;;;;40.40;36.40;;;;;;;1.50;95.17;98450.30;104986;1314;23386;-88
2022/11/28 05:43:50;;;;;;;40.50;36.80;;;;;;;1.52;95.03;98445.06;104726;1329;22226;-86
2022/11/28 05:46:19;;;;;;;43.70;39.70;;;;;;;1.54;95.12;98447.91;104667;1326;22241;-86
2022/11/28 05:48:47;;;;;;;48.40;43.60;;;;;;;1.53;95.13;98450.70;104981;1311;23015;-85
2022/11/28 05:51:15;;;;;;;46.10;41.90;;;;;;;1.54;95.31;98450.41;104800;1323;22112;-86
2022/11/28 05:53:44;;;;;;;49.00;44.00;;;;;;;1.52;95.09;98450.83;104938;1320;22219;-87
2022/11/28 05:56:15;;;;;;;46.50;42.00;;;;;;;1.52;95.08;98449.73;105299;1319;22213;-87
2022/11/28 05:58:43;;;;;;;44.00;39.90;;;;;;;1.54;95.04;98445.42;105285;1319;22209;-88
2022/11/28 06:01:17;;;;;;;42.70;38.80;;;;;;;1.55;95.05;98444.29;104668;1329;22229;-87
2022/11/28 06:03:45;;;;;;;51.30;46.40;;;;;;;1.54;95.37;98442.14;104740;1322;22181;-87
2022/11/28 06:06:19;;;;;;;43.00;38.60;;;;;;;1.53;95.20;98440.72;104558;1330;22106;-87
2022/11/28 06:08:48;;;;;;;47.40;43.00;;;;;;;1.50;95.09;98439.67;104669;1330;22206;-86
2022/11/28 06:11:18;;;;;;;45.70;41.30;;;;;;;1.50;95.26;98440.69;104875;1330;22887;-86
2022/11/28 06:13:47;;;;;;;47.90;43.00;;;;;;;1.53;95.15;98442.65;104634;1330;22242;-86
2022/11/28 06:16:19;;;;;;;42.60;38.70;;;;;;;1.60;95.28;98440.46;104791;1329;23160;-85
2022/11/28 06:18:50;;;;;;;43.70;39.70;;;;;;;1.62;95.30;98437.98;104747;1323;22188;-86
2022/11/28 06:21:19;;;;;;;43.20;39.10;;;;;;;1.62;95.16;98435.94;105027;1319;22989;-86
2022/11/28 06:23:48;;;;;;;39.30;35.80;;;;;;;1.59;95.01;98438.80;104763;1329;22180;-86
2022/11/28 06:26:20;;;;;;;34.70;31.60;;;;;;;1.60;94.99;98433.36;104649;1330;22279;-87
2022/11/28 06:28:49;;;;;;;36.70;32.90;;;;;;;1.63;95.07;98434.66;104746;1329;22198;-85
2022/11/28 06:31:20;;;;;;;38.40;34.50;;;;;;;1.65;95.22;98438.22;104757;1329;22222;-87
2022/11/28 06:33:48;;;;;;;38.40;34.90;;;;;;;1.66;95.11;98436.38;104763;1329;22967;-86
2022/11/28 06:36:17;;;;;;;39.20;35.60;;;;;;;1.66;94.90;98434.98;104865;1328;22199;-87
2022/11/28 06:38:46;;;;;;;36.70;33.00;;;;;;;1.63;94.84;98435.27;104768;1329;22217;-86
2022/11/28 06:41:17;;;;;;;34.60;31.30;;;;;;;1.62;94.84;98435.20;105300;1319;22265;-86
2022/11/28 06:43:45;;;;;;;32.80;29.50;;;;;;;1.63;94.87;98436.98;104730;1329;22179;-87
2022/11/28 06:46:17;;;;;;;36.00;32.50;;;;;;;1.63;94.94;98438.70;104876;1330;22292;-87
2022/11/28 06:48:47;;;;;;;36.60;33.10;;;;;;;1.64;94.78;98439.78;104942;1328;22226;-87
2022/11/28 06:51:16;;;;;;;39.90;36.10;;;;;;;1.63;94.67;98437.77;104720;1330;22100;-86
2022/11/28 06:53:44;;;;;;;41.00;36.80;;;;;;;1.61;94.63;98440.45;104763;1329;22860;-86
2022/11/28 06:56:14;;;;;;;37.30;33.40;;;;;;;1.63;94.62;98442.55;104731;1329;22197;-88
2022/11/28 06:58:44;;;;;;;37.90;33.80;;;;;;;1.66;94.75;98438.61;105278;1319;22112;-87
2022/11/28 07:01:20;;;;;;;38.50;34.90;;;;;;;1.70;94.73;98442.89;104850;1330;22173;-87
2022/11/28 07:03:48;;;;;;;40.20;36.40;;;;;;;1.72;94.73;98439.08;105293;1314;22189;-87
2022/11/28 07:06:18;;;;;;;40.30;36.20;;;;;;;1.75;94.96;98438.19;104752;1329;22815;-86
2022/11/28 07:08:47;;;;;;;41.40;37.30;;;;;;;1.76;94.67;98436.52;104846;1321;22938;-86
2022/11/28 07:11:24;;;;;;;38.30;34.60;;;;;;;1.77;94.52;98437.02;104536;1330;22232;-86
2022/11/28 07:13:53;;;;;;;36.80;33.20;;;;;;;1.78;94.53;98437.73;104560;1325;22693;-87
2022/11/28 07:16:24;;;;;;;38.00;34.30;;;;;;;1.81;94.60;98439.30;104772;1324;22196;-86
2022/11/28 07:18:53;;;;;;;38.00;34.50;;;;;;;1.80;94.54;98435.09;105295;1319;22196;-87
2022/11/28 07:21:22;;;;;;;41.70;37.70;;;;;;;1.79;94.44;98436.70;104630;1329;199355;-87
2022/11/28 07:23:51;;;;;;;38.10;34.00;;;;;;;1.76;94.49;98434.98;104690;1330;22296;-86
2022/11/28 07:26:20;;;;;;;38.70;35.00;;;;;;;1.77;94.59;98430.77;104907;1328;22260;-85
2022/11/28 07:28:50;;;;;;;40.60;36.40;;;;;;;1.81;94.55;98431.39;104754;1329;22184;-85
2022/11/28 07:31:25;;;;;;;42.50;38.40;;;;;;;1.85;94.49;98432.11;105006;1317;23110;-85
2022/11/28 07:33:53;;;;;;;46.40;42.00;;;;;;;1.87;94.34;98434.70;104813;1322;22235;-86
2022/11/28 07:36:24;;;;;;;45.00;40.70;;;;;;;1.88;94.61;98438.23;104925;1329;22193;-86
2022/11/28 07:38:55;;;;;;;44.90;40.60;;;;;;;1.88;94.67;98440.03;104757;1329;22228;-85
2022/11/28 07:41:24;;;;;;;46.00;41.60;;;;;;;1.90;94.60;98439.71;104706;1329;22207;-86
2022/11/28 07:43:59;;;;;;;36.10;32.80;;;;;;;1.95;94.54;98434.89;105017;1329;22793;-87
2022/11/28 07:46:29;;;;;;;38.90;35.40;;;;;;;1.97;94.38;98435.95;104877;1329;22286;-88
2022/11/28 07:48:58;;;;;;;40.60;36.80;;;;;;;2.01;94.56;98434.14;104738;1329;22174;-88
2022/11/28 07:51:30;;;;;;;42.70;38.80;;;;;;;2.01;94.40;98433.23;104653;1327;22118;-87
2022/11/28 07:53:59;;;;;;;38.50;34.70;;;;;;;1.98;94.51;98433.13;104675;1329;23034;-88
2022/11/28 07:56:29;;;;;;;37.80;34.30;;;;;;;1.98;94.06;98428.87;104767;1330;22113;-87
2022/11/28 07:59:17;;;;;;;39.40;35.70;;;;;;;2.00;94.07;98432.10;104807;1329;22204;-87
2022/11/28 08:01:45;;;;;;;36.40;32.90;;;;;;;2.02;94.20;98428.73;104998;1319;22884;-86
2022/11/28 08:04:13;;;;;;;40.90;37.00;;;;;;;2.01;94.09;98426.86;104851;1329;22899;-87
2022/11/28 08:06:43;;;;;;;41.10;37.10;;;;;;;2.02;94.40;98426.77;104759;1325;22239;-85
2022/11/28 08:09:11;;;;;;;41.20;37.40;;;;;;;2.04;94.25;98423.10;104724;1329;22905;-86
2022/11/28 08:11:39;;;;;;;38.30;34.60;;;;;;;2.05;94.15;98421.84;104864;1320;22107;-86
2022/11/28 08:14:08;;;;;;;38.40;33.10;;;;;;;2.08;94.21;98420.41;104968;1320;22083;-86
2022/11/28 08:16:36;;;;;;;35.20;31.80;;;;;;;2.10;94.37;98409.73;104718;1329;22214;-87
2022/11/28 08:19:04;;;;;;;30.90;27.80;;;;;;;2.14;94.09;98419.92;104745;1329;22253;-87
2022/11/28 08:21:34;;;;;;;32.60;29.60;;;;;;;2.16;93.97;98421.73;104987;1308;22243;-86
2022/11/28 08:24:03;;;;;;;35.90;32.40;;;;;;;2.17;94.19;98420.01;105002;1319;22081;-86
2022/11/28 08:26:32;;;;;;;36.70;33.10;;;;;;;2.16;94.05;98421.94;105225;1318;22854;-86
2022/11/28 08:29:01;;;;;;;33.20;29.70;;;;;;;2.16;93.99;98421.52;105294;1307;22779;-85
2022/11/28 08:31:32;;;;;;;31.30;28.20;;;;;;;2.18;94.17;98420.61;104869;1330;22296;-86
2022/11/28 08:34:03;;;;;;;31.40;28.50;;;;;;;2.21;93.62;98419.40;104609;1329;22210;-86
2022/11/28 08:36:31;;;;;;;35.20;31.80;;;;;;;2.19;93.66;98421.37;104547;1330;22214;-86
2022/11/28 08:39:00;;;;;;;36.00;32.60;;;;;;;2.17;93.57;98419.16;105253;1319;22220;-86
2022/11/28 08:41:48;;;;;;;35.50;30.00;;;;;;;2.11;93.33;98414.17;104764;1330;22830;-86
2022/11/28 08:44:16;;;;;;;31.90;29.00;;;;;;;2.10;93.37;98415.31;104764;1329;22247;-87
2022/11/28 08:46:44;;;;;;;33.20;29.90;;;;;;;2.11;93.28;98417.51;104756;1329;22185;-86
2022/11/28 08:49:12;;;;;;;32.70;29.70;;;;;;;2.11;93.32;98414.96;104723;1329;23165;-88
2022/11/28 08:51:40;;;;;;;34.40;31.10;;;;;;;2.11;93.62;98414.27;105307;1314;22104;-86
2022/11/28 08:54:08;;;;;;;34.90;31.50;;;;;;;2.10;93.38;98414.67;104841;1328;22252;-87
2022/11/28 08:56:36;;;;;;;32.80;29.80;;;;;;;2.11;93.74;98412.89;104652;1330;22954;-86
2022/11/28 08:59:05;;;;;;;33.10;29.70;;;;;;;2.14;93.51;98413.96;104735;1329;22292;-86
2022/11/28 09:01:33;;;;;;;32.20;29.10;;;;;;;2.19;93.45;98413.91;104769;1329;22342;-85
2022/11/28 09:04:03;;;;;;;32.00;29.10;;;;;;;2.25;93.72;98407.84;104758;1327;22199;-85
2022/11/28 09:06:31;;;;;;;33.20;30.20;;;;;;;2.33;93.92;98411.84;104742;1324;22310;-87
2022/11/28 09:09:00;;;;;;;36.80;33.00;;;;;;;2.37;93.78;98404.06;104646;1324;22661;-86
2022/11/28 09:11:28;;;;;;;35.70;32.20;;;;;;;2.43;93.82;98402.84;105276;1319;22209;-86
2022/11/28 09:13:56;;;;;;;33.90;30.70;;;;;;;2.46;93.39;98401.91;104775;1329;22291;-87
2022/11/28 09:16:24;;;;;;;30.40;27.50;;;;;;;2.49;93.45;98402.81;104851;1329;22198;-87
2022/11/28 09:18:53;;;;;;;34.70;28.30;;;;;;;2.51;93.51;98396.27;104940;1319;22117;-88
2022/11/28 09:21:22;;;;;;;31.00;28.00;;;;;;;2.57;93.37;98390.59;104868;1330;22207;-86
2022/11/28 09:23:53;;;;;;;32.40;29.00;;;;;;;2.60;93.32;98387.20;104668;1311;22322;-87
2022/11/28 09:26:23;;;;;;;33.60;30.20;;;;;;;2.62;93.53;98384.15;104837;1329;22790;-87
2022/11/28 09:28:52;;;;;;;33.00;30.00;;;;;;;2.62;93.41;98380.54;104724;1329;22334;-87
2022/11/28 09:31:20;;;;;;;33.90;30.60;;;;;;;2.65;93.48;98385.91;104752;1329;22249;-88
2022/11/28 09:33:48;;;;;;;34.50;31.20;;;;;;;2.72;93.20;98381.84;104786;1330;22206;-87
2022/11/28 09:36:19;;;;;;;31.80;28.80;;;;;;;2.77;93.13;98374.98;104911;1328;22178;-87
2022/11/28 09:38:48;;;;;;;34.10;30.70;;;;;;;2.83;93.03;98376.84;104735;1327;22278;-88
2022/11/28 09:41:31;;;;;;;32.80;29.70;;;;;;;2.87;93.43;98373.85;104684;1328;22116;-88
2022/11/28 09:44:13;;;;;;;35.00;31.70;;;;;;;2.88;93.09;98371.58;104934;1330;22248;-86
2022/11/28 09:46:43;;;;;;;35.40;32.00;;;;;;;2.89;93.13;98368.98;104989;1326;22269;-87
2022/11/28 09:49:30;;;;;;;35.90;32.40;;;;;;;2.91;92.81;98366.96;105058;1321;22203;-86
2022/11/28 09:52:21;;;;;;;33.10;29.80;;;;;;;2.96;92.90;98362.98;104773;1329;22385;-87
2022/11/28 09:55:01;;;;;;;32.30;29.30;;;;;;;3.03;92.91;98364.71;104894;1329;22284;-87
2022/11/28 09:57:47;;;;;;;34.20;31.10;;;;;;;3.12;93.03;98353.27;104679;1326;22191;-87
2022/11/28 10:00:29;;;;;;;35.10;31.70;;;;;;;3.19;92.69;98352.05;104615;1330;22229;-86
2022/11/28 10:03:03;;;;;;;32.20;28.70;;;;;;;3.23;92.86;98345.54;104880;1324;22213;-87
2022/11/28 10:05:55;;;;;;;36.10;32.60;;;;;;;3.28;92.88;98343.22;104841;1330;22004;-87
2022/11/28 10:08:45;;;;;;;33.40;30.50;;;;;;;3.32;92.65;98337.30;105276;1307;22986;-87
2022/11/28 10:11:49;;;;;;;31.10;27.80;;;;;;;3.36;92.46;98335.79;105298;1315;22977;-86
2022/11/28 10:14:31;;;;;;;34.60;31.30;;;;;;;3.40;92.17;98334.52;104289;1335;22230;-87
2022/11/28 10:17:13;;;;;;;32.00;28.80;;;;;;;3.43;92.17;98330.20;104307;1335;22231;-87
2022/11/28 10:20:01;;;;;;;34.20;30.80;;;;;;;3.51;92.86;98332.14;104613;1318;22981;-87
2022/11/28 10:22:54;;;;;;;33.70;30.40;;;;;;;3.61;92.82;98327.13;104508;1312;23444;-88
2022/11/28 10:25:31;;;;;;;33.90;30.40;;;;;;;3.72;92.79;98329.27;104586;1328;22124;-90
2022/11/28 10:28:00;;;;;;;33.20;30.20;;;;;;;3.80;92.78;98325.71;104305;1335;22822;-88
2022/11/28 10:30:32;;;;;;;32.30;29.00;;;;;;;3.86;92.78;98320.85;104294;1335;22244;-88
2022/11/28 10:33:38;;;;;;;30.40;27.30;;;;;;;3.98;92.03;98323.58;104580;1320;22226;-87
2022/11/28 10:36:13;;;;;;;;;;;;;;;4.07;91.66;98317.67;104178;1326;22506;-92
2022/11/28 10:38:41;;;;;;;30.90;28.10;;;;;;;4.14;91.97;98318.73;104163;1333;22304;-89
2022/11/28 10:41:21;;;;;;;29.70;26.70;;;;;;;4.29;92.10;98310.32;104036;1344;22274;-89
2022/11/28 10:44:11;;;;;;;28.70;26.10;;;;;;;4.45;91.73;98306.95;104005;1344;22309;-90
2022/11/28 10:46:59;;;;;;;29.90;27.00;;;;;;;4.59;91.19;98311.92;104168;1326;22291;-91
2022/11/28 10:49:52;;;;;;;29.10;26.50;;;;;;;4.77;91.07;98307.48;104229;1334;22204;-90
2022/11/28 10:52:28;;;;;;;34.70;31.40;;;;;;;4.94;90.46;98302.58;104625;1328;22245;-91
2022/11/28 10:54:59;;;;;;;32.90;29.70;;;;;;;5.09;90.96;98297.06;104168;1338;22300;-90
2022/11/28 10:57:38;;;;;;;30.80;28.00;;;;;;;5.31;91.28;98295.17;104448;1313;22888;-88
2022/11/28 11:00:18;;;;;;;31.20;28.30;;;;;;;5.50;89.87;98290.73;104180;1338;22273;-90
2022/11/28 11:02:48;;;;;;;29.40;26.70;;;;;;;5.68;89.41;98291.44;104502;1326;22315;-89
2022/11/28 11:05:20;;;;;;;28.80;25.80;;;;;;;5.83;89.14;98285.92;104176;1337;22298;-89
2022/11/28 11:07:55;;;;;;;30.10;27.40;;;;;;;6.02;88.98;98284.68;104484;1323;22446;-89
2022/11/28 11:10:32;;;;;;;27.80;25.30;;;;;;;6.86;89.23;98280.13;104411;1328;22248;-88
2022/11/28 11:13:14;;;;;;;29.20;26.40;;;;;;;8.43;88.34;98282.80;104403;1330;22218;-88
2022/11/28 11:15:44;;;;;;;27.40;24.50;;;;;;;8.79;87.86;98279.64;104702;1329;22257;-89
2022/11/28 11:18:29;;;;;;;26.10;23.60;;;;;;;8.71;88.05;98278.02;104693;1330;22290;-86
2022/11/28 11:21:18;;;;;;;26.40;23.80;;;;;;;9.07;87.33;98270.98;104768;1329;22110;-90
2022/11/28 11:23:47;;;;;;;25.20;22.80;;;;;;;9.68;88.28;98273.86;104913;1330;22246;-88
2022/11/28 11:26:23;;;;;;;26.00;23.40;;;;;;;10.61;84.61;98269.14;105112;1319;22179;-88
2022/11/28 11:28:52;;;;;;;25.50;23.00;;;;;;;11.05;85.74;98268.38;104996;1319;22203;-89
2022/11/28 11:31:31;;;;;;;24.50;22.00;;;;;;;11.24;82.74;98264.09;104815;1328;23052;-90
2022/11/28 11:34:03;;;;;;;27.40;24.40;;;;;;;11.21;83.60;98263.73;104995;1324;22919;-87
2022/11/28 11:36:35;;;;;;;24.70;22.40;;;;;;;10.61;83.76;98267.64;104859;1330;22208;-88
2022/11/28 11:39:17;;;;;;;26.30;23.60;;;;;;;10.11;84.25;98268.05;104935;1324;22193;-89
2022/11/28 11:42:05;;;;;;;27.80;23.40;;;;;;;9.84;83.88;98268.02;105340;1307;22281;-87
2022/11/28 11:44:35;;;;;;;25.00;22.50;;;;;;;9.46;84.39;98264.06;105107;1320;22186;-88
2022/11/28 11:47:08;;;;;;;25.60;23.10;;;;;;;9.12;82.91;98268.90;104871;1313;22183;-87